Time;durP1;ratioP1;P1;durP2;ratioP2;P2;SDS_P1;SDS_P2;PMS_P1;PMS_P2;Temp;Humidity;BMP_temperature;BMP_pressure;BME280_temperature;BME280_humidity;BME280_pressure;Samples;Min_cycle;Max_cycle;Signal;HPM_P1;HPM_P2
2022/03/13 00:00:53;;;;;;;26.83;19.77;;;4.90;90.30;;;;;;5025687;28;20018;-75
2022/03/13 00:03:21;;;;;;;32.88;18.83;;;4.80;90.40;;;;;;5033727;28;20481;-74
2022/03/13 00:05:50;;;;;;;23.63;18.35;;;4.70;90.60;;;;;;5033900;28;20493;-75
2022/03/13 00:08:38;;;;;;;26.15;19.15;;;4.70;90.90;;;;;;5049384;28;20298;-74
2022/03/13 00:11:08;;;;;;;29.33;19.77;;;4.70;91.10;;;;;;5021610;28;20041;-74
2022/03/13 00:13:44;;;;;;;28.90;20.58;;;4.80;91.10;;;;;;5044817;28;20014;-76
2022/03/13 00:16:09;;;;;;;33.33;19.35;;;4.70;91.10;;;;;;5047755;28;20035;-74
2022/03/13 00:18:36;;;;;;;26.70;19.35;;;4.60;91.40;;;;;;5033506;28;20389;-74
2022/03/13 00:21:03;;;;;;;27.83;19.17;;;4.70;91.40;;;;;;5022803;28;20026;-75
2022/03/13 00:23:33;;;;;;;26.85;19.52;;;4.70;91.40;;;;;;5033340;28;20017;-73
2022/03/13 00:25:59;;;;;;;28.25;17.75;;;4.70;91.50;;;;;;5022511;28;20030;-75
2022/03/13 00:28:25;;;;;;;25.85;17.55;;;4.70;91.60;;;;;;5046104;28;20025;-77
2022/03/13 00:30:51;;;;;;;25.17;18.00;;;4.70;91.40;;;;;;5043721;28;20108;-75
2022/03/13 00:33:17;;;;;;;27.33;18.73;;;4.70;91.60;;;;;;5028681;28;20107;-74
2022/03/13 00:35:42;;;;;;;25.45;17.65;;;4.70;91.60;;;;;;5027378;28;20595;-73
2022/03/13 00:38:08;;;;;;;22.35;17.77;;;4.70;91.50;;;;;;5065578;28;20026;-73
2022/03/13 00:40:34;;;;;;;33.33;18.73;;;4.60;91.90;;;;;;5065830;28;20034;-72
2022/03/13 00:43:00;;;;;;;27.13;19.02;;;4.60;92.00;;;;;;5073436;28;20049;-72
2022/03/13 00:45:27;;;;;;;26.60;19.40;;;4.60;92.10;;;;;;5051329;28;20040;-73
2022/03/13 00:47:52;;;;;;;33.58;21.25;;;4.50;92.10;;;;;;5052970;28;20047;-73
2022/03/13 00:50:18;;;;;;;34.47;20.88;;;4.50;92.20;;;;;;5049874;28;20009;-72
2022/03/13 00:52:44;;;;;;;34.63;21.20;;;4.40;92.40;;;;;;5074269;28;20013;-72
2022/03/13 00:55:10;;;;;;;32.00;19.77;;;4.30;92.70;;;;;;5054196;28;20072;-72
2022/03/13 00:57:36;;;;;;;38.10;21.38;;;4.20;92.80;;;;;;5050489;28;20089;-73
2022/03/13 01:00:02;;;;;;;33.83;22.95;;;4.20;93.10;;;;;;5056860;28;20047;-73
2022/03/13 01:02:28;;;;;;;32.67;22.08;;;4.20;93.20;;;;;;5055531;28;20349;-73
2022/03/13 01:04:53;;;;;;;32.75;22.38;;;4.30;93.30;;;;;;5045259;28;20061;-73
2022/03/13 01:07:19;;;;;;;31.77;20.50;;;4.20;93.40;;;;;;5042042;28;20161;-73
2022/03/13 01:09:45;;;;;;;29.58;20.50;;;4.20;93.40;;;;;;5027439;28;20025;-74
2022/03/13 01:12:11;;;;;;;30.92;21.02;;;4.10;93.70;;;;;;5022253;28;20030;-73
2022/03/13 01:14:37;;;;;;;39.42;22.20;;;4.10;93.80;;;;;;5039509;28;20135;-72
2022/03/13 01:17:06;;;;;;;31.88;21.38;;;4.10;93.90;;;;;;5043501;28;20006;-74
2022/03/13 01:19:31;;;;;;;35.75;20.70;;;4.00;94.30;;;;;;5072428;28;20096;-73
2022/03/13 01:21:57;;;;;;;29.58;20.70;;;4.00;94.10;;;;;;5070033;28;20069;-73
2022/03/13 01:24:29;;;;;;;28.85;21.02;;;3.90;94.30;;;;;;5055140;28;20084;-73
2022/03/13 01:27:04;;;;;;;30.88;22.08;;;3.90;94.60;;;;;;5044421;28;20022;-73
2022/03/13 01:29:31;;;;;;;29.23;19.85;;;3.80;94.90;;;;;;5052098;28;20049;-75
2022/03/13 01:31:58;;;;;;;36.25;20.73;;;3.80;95.30;;;;;;5042779;28;20049;-74
2022/03/13 01:34:32;;;;;;;32.90;21.17;;;3.80;95.60;;;;;;5053420;28;20366;-73
2022/03/13 01:36:58;;;;;;;29.65;19.42;;;3.90;95.60;;;;;;5026700;28;20390;-73
2022/03/13 01:39:24;;;;;;;33.55;21.05;;;3.90;95.70;;;;;;5029420;28;20025;-75
2022/03/13 01:41:50;;;;;;;31.80;20.70;;;3.80;96.00;;;;;;5024128;28;20037;-74
2022/03/13 01:44:18;;;;;;;31.38;20.20;;;3.80;96.10;;;;;;5028614;28;20101;-74
2022/03/13 01:46:43;;;;;;;30.95;19.17;;;3.70;96.40;;;;;;5024422;28;20048;-73
2022/03/13 01:49:09;;;;;;;31.05;20.17;;;3.70;96.40;;;;;;5024024;28;20410;-73
2022/03/13 01:51:35;;;;;;;27.95;18.90;;;3.70;96.60;;;;;;5030906;28;20052;-74
2022/03/13 01:54:10;;;;;;;34.17;21.10;;;3.70;96.70;;;;;;5019206;28;20029;-73
2022/03/13 01:56:36;;;;;;;28.90;20.02;;;3.70;96.80;;;;;;5032502;28;20029;-75
2022/03/13 01:59:04;;;;;;;28.13;20.27;;;3.60;97.10;;;;;;5023833;28;20495;-74
2022/03/13 02:01:29;;;;;;;32.88;20.05;;;3.60;97.70;;;;;;5031296;28;20108;-75
2022/03/13 02:03:56;;;;;;;26.10;19.58;;;3.60;97.60;;;;;;5030548;28;20109;-74
2022/03/13 02:06:25;;;;;;;33.63;22.63;;;3.60;97.60;;;;;;5021850;28;20030;-74
2022/03/13 02:08:53;;;;;;;29.38;20.83;;;3.60;97.70;;;;;;5029212;28;20025;-74
2022/03/13 02:11:23;;;;;;;29.33;20.45;;;3.60;98.00;;;;;;5022087;28;20032;-74
2022/03/13 02:13:51;;;;;;;34.50;20.30;;;3.60;98.20;;;;;;5044722;28;20486;-73
2022/03/13 02:16:18;;;;;;;29.88;20.00;;;3.50;98.60;;;;;;5022502;28;20063;-74
2022/03/13 02:18:49;;;;;;;32.22;21.23;;;3.60;98.70;;;;;;5042075;28;20029;-73
2022/03/13 02:21:16;;;;;;;27.00;19.13;;;3.60;98.60;;;;;;5045336;28;20037;-74
2022/03/13 02:23:42;;;;;;;29.40;20.88;;;3.40;99.00;;;;;;5022447;28;20018;-73
2022/03/13 02:26:08;;;;;;;31.65;21.48;;;3.40;99.00;;;;;;5034154;28;20021;-74
2022/03/13 02:28:36;;;;;;;29.10;19.98;;;3.30;99.10;;;;;;5033616;28;20079;-74
2022/03/13 02:31:11;;;;;;;28.33;20.80;;;3.30;99.60;;;;;;5030333;28;20048;-75
2022/03/13 02:33:38;;;;;;;26.90;19.65;;;3.30;99.60;;;;;;5048734;28;20025;-75
2022/03/13 02:36:05;;;;;;;28.67;20.67;;;3.20;99.60;;;;;;5035243;28;20025;-74
2022/03/13 02:38:31;;;;;;;28.20;19.48;;;3.30;99.60;;;;;;5033020;28;20045;-74
2022/03/13 02:40:58;;;;;;;28.27;19.85;;;3.30;99.70;;;;;;5024614;28;20040;-74
2022/03/13 02:43:25;;;;;;;30.30;21.52;;;3.20;99.70;;;;;;5029791;28;20512;-74
2022/03/13 02:45:54;;;;;;;27.88;20.05;;;3.10;99.90;;;;;;5029536;28;20029;-75
2022/03/13 02:48:20;;;;;;;27.98;19.73;;;3.20;99.60;;;;;;5035692;28;20018;-75
2022/03/13 02:50:46;;;;;;;26.98;18.13;;;3.20;99.50;;;;;;5037161;28;20025;-74
2022/03/13 02:53:15;;;;;;;28.27;21.42;;;3.20;99.50;;;;;;5053969;28;20079;-75
2022/03/13 02:55:40;;;;;;;32.88;22.73;;;3.20;99.70;;;;;;5030228;28;20029;-74
2022/03/13 02:58:06;;;;;;;28.98;19.63;;;3.10;99.90;;;;;;5032447;28;20030;-75
2022/03/13 03:00:46;;;;;;;31.48;19.73;;;3.10;99.90;;;;;;5025142;28;20017;-76
2022/03/13 03:03:17;;;;;;;27.95;19.92;;;3.00;99.90;;;;;;5027257;28;20022;-74
2022/03/13 03:05:43;;;;;;;28.38;19.98;;;3.00;99.90;;;;;;5034023;28;20026;-75
2022/03/13 03:08:10;;;;;;;30.58;19.50;;;3.10;99.90;;;;;;5027316;28;20490;-74
2022/03/13 03:10:36;;;;;;;31.25;21.10;;;3.00;99.90;;;;;;5028929;28;20018;-76
2022/03/13 03:13:02;;;;;;;28.42;18.55;;;3.00;99.90;;;;;;5027054;28;20030;-75
2022/03/13 03:15:28;;;;;;;24.63;18.10;;;2.90;99.90;;;;;;5027784;28;20040;-74
2022/03/13 03:17:54;;;;;;;24.25;16.85;;;2.80;99.90;;;;;;5044825;28;20474;-75
2022/03/13 03:20:21;;;;;;;26.52;17.23;;;2.80;99.80;;;;;;5032913;28;20034;-75
2022/03/13 03:22:47;;;;;;;23.15;15.63;;;2.80;99.70;;;;;;5030734;28;20105;-75
2022/03/13 03:25:13;;;;;;;24.38;17.20;;;2.90;98.00;;;;;;5031925;28;20021;-75
2022/03/13 03:27:40;;;;;;;24.52;17.35;;;2.90;98.10;;;;;;5025074;28;20018;-74
2022/03/13 03:30:06;;;;;;;23.85;16.77;;;2.90;98.80;;;;;;5026290;28;20497;-75
2022/03/13 03:32:32;;;;;;;23.77;16.67;;;2.80;99.00;;;;;;5031585;28;20045;-74
2022/03/13 03:34:58;;;;;;;25.05;17.38;;;2.80;99.00;;;;;;5025811;28;20017;-75
2022/03/13 03:37:24;;;;;;;26.67;17.95;;;2.80;99.10;;;;;;5020816;28;20081;-75
2022/03/13 03:39:49;;;;;;;24.27;17.30;;;2.80;99.00;;;;;;5025945;28;20025;-75
2022/03/13 03:42:15;;;;;;;25.40;17.80;;;2.80;99.80;;;;;;5032830;28;20025;-75
2022/03/13 03:44:40;;;;;;;28.25;17.27;;;2.80;99.90;;;;;;5027692;28;20029;-74
2022/03/13 03:47:06;;;;;;;27.98;16.10;;;2.70;99.60;;;;;;5022390;28;20045;-75
2022/03/13 03:49:34;;;;;;;22.48;17.13;;;2.70;99.40;;;;;;5029989;28;20018;-75
2022/03/13 03:52:00;;;;;;;26.45;17.73;;;2.70;99.40;;;;;;5029774;28;20048;-74
2022/03/13 03:54:25;;;;;;;31.90;18.85;;;2.90;98.90;;;;;;5024705;28;20746;-75
2022/03/13 03:56:51;;;;;;;28.25;16.95;;;2.90;98.80;;;;;;5043015;28;20028;-75
2022/03/13 03:59:19;;;;;;;26.98;17.02;;;2.80;99.00;;;;;;5027821;28;20033;-75
2022/03/13 04:01:44;;;;;;;23.52;17.88;;;2.70;99.20;;;;;;5028215;28;20025;-75
2022/03/13 04:04:10;;;;;;;26.05;17.27;;;2.70;99.60;;;;;;5022568;28;20030;-75
2022/03/13 04:06:38;;;;;;;35.28;20.00;;;2.70;99.60;;;;;;5034174;28;20030;-75
2022/03/13 04:09:05;;;;;;;27.90;18.55;;;2.70;99.90;;;;;;5023850;28;20018;-75
2022/03/13 04:11:31;;;;;;;27.48;18.85;;;2.60;99.90;;;;;;5033528;28;20095;-75
2022/03/13 04:13:56;;;;;;;24.35;18.23;;;2.60;99.90;;;;;;5032289;28;20037;-75
2022/03/13 04:16:22;;;;;;;26.48;18.00;;;2.50;99.90;;;;;;5022656;28;20088;-75
2022/03/13 04:18:47;;;;;;;24.80;18.30;;;2.50;99.90;;;;;;5027382;28;20025;-75
2022/03/13 04:21:13;;;;;;;29.30;18.10;;;2.60;99.90;;;;;;5028254;28;20030;-75
2022/03/13 04:23:39;;;;;;;22.27;16.90;;;2.60;99.90;;;;;;5026458;28;20022;-75
2022/03/13 04:26:05;;;;;;;31.75;18.60;;;2.50;99.90;;;;;;5029665;28;20018;-75
2022/03/13 04:28:32;;;;;;;23.25;17.13;;;2.50;99.90;;;;;;5025213;28;20474;-75
2022/03/13 04:30:59;;;;;;;22.83;16.58;;;2.50;99.90;;;;;;5031425;28;20029;-75
2022/03/13 04:33:26;;;;;;;25.30;17.65;;;2.50;99.90;;;;;;5030609;28;20017;-75
2022/03/13 04:35:54;;;;;;;27.90;18.58;;;2.50;99.90;;;;;;5022970;28;20038;-75
2022/03/13 04:38:20;;;;;;;23.85;17.35;;;2.50;99.90;;;;;;5031203;28;20112;-75
2022/03/13 04:40:45;;;;;;;24.70;17.33;;;2.50;99.90;;;;;;5029492;28;20072;-75
2022/03/13 04:43:11;;;;;;;22.88;16.80;;;2.50;99.90;;;;;;5020815;28;20367;-76
2022/03/13 04:45:37;;;;;;;24.10;17.85;;;2.40;99.90;;;;;;5032262;28;20101;-75
2022/03/13 04:48:02;;;;;;;23.05;17.85;;;2.40;99.90;;;;;;5033500;28;20033;-75
2022/03/13 04:50:28;;;;;;;24.38;17.55;;;2.30;99.90;;;;;;5026201;28;20021;-76
2022/03/13 04:52:53;;;;;;;25.08;17.77;;;2.40;99.90;;;;;;5023024;28;20026;-73
2022/03/13 04:55:19;;;;;;;24.45;16.42;;;2.40;99.90;;;;;;5046107;28;20112;-76
2022/03/13 04:57:45;;;;;;;27.45;17.15;;;2.30;99.90;;;;;;5024379;28;20079;-75
2022/03/13 05:00:10;;;;;;;28.65;18.45;;;2.30;99.90;;;;;;5027643;28;20109;-75
2022/03/13 05:02:37;;;;;;;28.70;17.75;;;2.20;99.90;;;;;;5025840;28;20124;-75
2022/03/13 05:05:04;;;;;;;24.83;17.95;;;2.20;99.90;;;;;;5032742;28;20018;-76
2022/03/13 05:07:30;;;;;;;28.38;17.63;;;2.20;99.90;;;;;;5021857;28;20048;-75
2022/03/13 05:09:56;;;;;;;26.00;18.48;;;2.30;99.90;;;;;;5020690;28;20161;-75
2022/03/13 05:12:25;;;;;;;25.33;17.08;;;2.40;99.90;;;;;;5030743;28;20500;-75
2022/03/13 05:14:50;;;;;;;25.30;17.90;;;2.50;99.90;;;;;;5047530;28;20028;-75
2022/03/13 05:17:16;;;;;;;31.83;19.88;;;2.40;99.90;;;;;;5032058;28;20030;-76
2022/03/13 05:19:42;;;;;;;25.50;17.65;;;2.30;99.90;;;;;;5025403;28;20052;-75
2022/03/13 05:22:07;;;;;;;25.70;16.92;;;2.30;99.90;;;;;;5030671;28;20104;-74
2022/03/13 05:24:33;;;;;;;28.60;19.08;;;2.30;99.90;;;;;;5024201;28;20435;-75
2022/03/13 05:26:58;;;;;;;27.50;18.15;;;2.20;99.90;;;;;;5025569;28;20026;-75
2022/03/13 05:29:24;;;;;;;42.08;20.55;;;2.10;99.90;;;;;;5026425;28;20093;-75
2022/03/13 05:31:49;;;;;;;26.75;18.00;;;2.20;99.90;;;;;;5026325;28;20032;-75
2022/03/13 05:34:15;;;;;;;25.55;17.70;;;2.20;99.90;;;;;;5028149;28;20018;-75
2022/03/13 05:36:41;;;;;;;26.30;17.73;;;2.20;99.90;;;;;;5040682;28;20109;-75
2022/03/13 05:39:06;;;;;;;23.77;17.33;;;2.20;99.90;;;;;;5032430;28;20545;-75
2022/03/13 05:41:33;;;;;;;43.20;19.17;;;2.20;99.90;;;;;;5031601;28;20036;-75
2022/03/13 05:43:59;;;;;;;27.70;19.10;;;2.20;99.90;;;;;;5022416;28;20103;-75
2022/03/13 05:46:24;;;;;;;27.77;19.67;;;2.30;99.90;;;;;;5029201;28;20125;-75
2022/03/13 05:48:50;;;;;;;29.27;18.30;;;2.30;99.90;;;;;;5028973;28;20616;-75
2022/03/13 05:51:15;;;;;;;26.98;19.10;;;2.40;99.90;;;;;;5030114;28;20124;-74
2022/03/13 05:53:41;;;;;;;25.40;18.30;;;2.40;99.90;;;;;;5021956;28;20158;-74
2022/03/13 05:56:07;;;;;;;26.45;18.67;;;2.40;99.90;;;;;;5031647;28;20045;-74
2022/03/13 05:58:32;;;;;;;26.23;19.58;;;2.50;99.90;;;;;;5026055;28;20026;-75
2022/03/13 06:01:04;;;;;;;30.30;19.15;;;2.60;99.90;;;;;;5027239;28;20497;-75
2022/03/13 06:03:30;;;;;;;28.20;20.67;;;2.70;99.90;;;;;;5023406;28;20021;-75
2022/03/13 06:05:57;;;;;;;28.42;18.63;;;2.70;99.90;;;;;;5021128;28;20030;-74
2022/03/13 06:08:22;;;;;;;28.73;18.90;;;2.60;99.90;;;;;;5045695;28;20025;-74
2022/03/13 06:10:48;;;;;;;26.30;18.73;;;2.70;99.90;;;;;;5022168;28;20040;-74
2022/03/13 06:13:14;;;;;;;29.30;19.15;;;2.70;99.90;;;;;;5030974;28;20030;-75
2022/03/13 06:15:40;;;;;;;31.20;20.38;;;2.70;99.90;;;;;;5046708;28;20018;-75
2022/03/13 06:18:05;;;;;;;26.52;18.52;;;2.70;99.90;;;;;;5046840;28;20109;-75
2022/03/13 06:20:31;;;;;;;27.50;19.33;;;2.80;99.90;;;;;;5037480;28;20025;-75
2022/03/13 06:22:59;;;;;;;26.00;18.50;;;2.80;99.90;;;;;;5031462;28;20033;-75
2022/03/13 06:25:24;;;;;;;28.15;21.10;;;3.00;99.90;;;;;;5026340;28;20083;-75
2022/03/13 06:27:50;;;;;;;24.25;18.58;;;3.20;99.90;;;;;;5041347;28;20482;-75
2022/03/13 06:30:20;;;;;;;27.80;19.08;;;3.20;99.90;;;;;;5031833;28;20033;-74
2022/03/13 06:32:49;;;;;;;29.08;20.02;;;3.10;99.90;;;;;;5022585;28;20077;-75
2022/03/13 06:35:17;;;;;;;28.92;19.65;;;3.20;99.90;;;;;;5028755;28;20564;-75
2022/03/13 06:37:42;;;;;;;27.25;19.02;;;3.30;99.90;;;;;;5024361;28;20355;-75
2022/03/13 06:40:10;;;;;;;28.17;18.45;;;3.50;99.90;;;;;;5044375;28;20047;-74
2022/03/13 06:42:37;;;;;;;26.63;19.38;;;3.70;99.90;;;;;;5023498;28;20024;-75
2022/03/13 06:45:04;;;;;;;27.20;18.58;;;3.70;99.90;;;;;;5027557;28;20034;-75
2022/03/13 06:47:29;;;;;;;27.70;19.33;;;3.70;99.90;;;;;;5027807;28;20080;-75
2022/03/13 06:49:55;;;;;;;29.40;19.40;;;3.70;99.90;;;;;;5021106;28;20112;-75
2022/03/13 06:52:20;;;;;;;25.05;18.85;;;3.80;99.90;;;;;;5029266;28;20084;-75
2022/03/13 06:54:46;;;;;;;25.42;18.70;;;3.90;99.30;;;;;;5027133;28;20025;-75
2022/03/13 06:57:14;;;;;;;26.48;18.40;;;3.90;99.30;;;;;;5027773;28;20033;-76
2022/03/13 06:59:41;;;;;;;25.42;17.77;;;3.90;99.30;;;;;;5028781;28;20009;-74
2022/03/13 07:02:07;;;;;;;27.90;17.27;;;4.10;99.10;;;;;;5026125;28;20397;-75
2022/03/13 07:04:33;;;;;;;26.42;17.70;;;4.20;98.80;;;;;;5046264;28;20024;-75
2022/03/13 07:06:59;;;;;;;25.13;16.88;;;4.40;98.20;;;;;;5046721;28;20481;-73
2022/03/13 07:09:26;;;;;;;29.05;17.55;;;4.50;97.80;;;;;;5023423;28;20524;-75
2022/03/13 07:11:51;;;;;;;18.33;15.15;;;4.60;97.00;;;;;;5024162;28;20077;-75
2022/03/13 07:14:21;;;;;;;23.23;15.68;;;4.70;96.60;;;;;;5033271;28;20022;-75
2022/03/13 07:16:49;;;;;;;23.48;14.30;;;4.90;95.80;;;;;;5024166;28;20085;-75
2022/03/13 07:19:15;;;;;;;22.80;15.63;;;5.10;94.60;;;;;;5032640;28;20051;-75
2022/03/13 07:21:40;;;;;;;19.42;14.57;;;5.30;93.90;;;;;;5034768;28;20037;-75
2022/03/13 07:24:06;;;;;;;18.33;13.60;;;5.40;93.20;;;;;;5023298;28;20026;-76
2022/03/13 07:26:32;;;;;;;17.55;13.43;;;5.60;92.00;;;;;;5034554;28;20026;-75
2022/03/13 07:29:01;;;;;;;15.75;12.30;;;5.60;90.80;;;;;;5024967;28;20110;-74
2022/03/13 07:31:27;;;;;;;17.17;12.35;;;5.60;90.70;;;;;;5029461;28;20030;-75
2022/03/13 07:33:53;;;;;;;16.80;13.00;;;5.80;90.00;;;;;;5025560;28;20072;-75
2022/03/13 07:36:19;;;;;;;16.40;11.05;;;5.90;90.00;;;;;;5048980;28;20029;-75
2022/03/13 07:38:44;;;;;;;18.35;11.95;;;6.00;88.60;;;;;;5032573;28;20077;-75
2022/03/13 07:41:11;;;;;;;17.48;11.80;;;6.10;87.20;;;;;;5033393;28;20025;-74
2022/03/13 07:43:36;;;;;;;14.82;11.00;;;6.20;86.00;;;;;;5042067;28;20448;-75
2022/03/13 07:46:02;;;;;;;14.15;10.95;;;6.20;85.10;;;;;;5030917;28;20088;-75
2022/03/13 07:48:28;;;;;;;17.05;12.25;;;6.30;84.80;;;;;;5025870;28;20427;-75
2022/03/13 07:50:54;;;;;;;16.65;12.77;;;6.30;84.00;;;;;;5031338;28;20018;-76
2022/03/13 07:53:20;;;;;;;15.77;10.32;;;6.40;83.70;;;;;;5025435;28;20125;-75
2022/03/13 07:55:45;;;;;;;18.55;12.70;;;6.50;83.30;;;;;;5047876;28;20032;-76
2022/03/13 07:58:12;;;;;;;15.05;11.70;;;6.70;82.50;;;;;;5026419;28;20021;-75
2022/03/13 08:00:38;;;;;;;15.57;12.07;;;6.80;82.30;;;;;;5029318;28;20090;-75
2022/03/13 08:03:03;;;;;;;15.50;11.50;;;6.80;82.90;;;;;;5034693;28;20045;-75
2022/03/13 08:05:29;;;;;;;19.92;13.77;;;6.80;82.30;;;;;;5022143;28;20017;-75
2022/03/13 08:07:56;;;;;;;16.83;11.75;;;7.00;82.00;;;;;;5033801;28;20604;-74
2022/03/13 08:10:23;;;;;;;16.23;12.85;;;7.00;81.90;;;;;;5025442;28;20021;-75
2022/03/13 08:12:50;;;;;;;15.45;12.68;;;7.10;82.10;;;;;;5023654;28;20021;-75
2022/03/13 08:15:16;;;;;;;16.42;13.13;;;7.30;81.80;;;;;;5046570;28;20021;-76
2022/03/13 08:17:42;;;;;;;19.17;13.52;;;7.40;82.10;;;;;;5025831;28;20096;-75
2022/03/13 08:20:09;;;;;;;16.08;12.20;;;7.60;81.70;;;;;;5029377;28;20505;-74
2022/03/13 08:22:35;;;;;;;18.48;13.40;;;7.70;81.80;;;;;;5024869;28;20018;-75
2022/03/13 08:25:00;;;;;;;20.25;13.63;;;7.90;81.10;;;;;;5029154;28;20500;-74
2022/03/13 08:27:26;;;;;;;17.50;12.90;;;7.80;81.50;;;;;;5032531;28;20039;-75
2022/03/13 08:29:52;;;;;;;18.95;13.70;;;7.80;81.40;;;;;;5027721;28;20022;-75
2022/03/13 08:32:17;;;;;;;17.08;13.23;;;8.10;80.70;;;;;;5032003;28;20394;-75
2022/03/13 08:34:45;;;;;;;19.70;13.45;;;8.20;80.40;;;;;;5028568;28;20066;-75
2022/03/13 08:37:12;;;;;;;17.60;12.70;;;8.40;79.60;;;;;;5029496;28;20028;-73
2022/03/13 08:39:37;;;;;;;19.67;13.25;;;8.40;79.30;;;;;;5025704;28;20022;-74
2022/03/13 08:42:04;;;;;;;16.83;14.05;;;8.40;79.40;;;;;;5024464;28;20037;-73
2022/03/13 08:44:30;;;;;;;20.13;13.27;;;8.40;79.30;;;;;;5025473;28;20030;-75
2022/03/13 08:46:56;;;;;;;17.80;14.70;;;8.40;79.20;;;;;;5028461;28;20490;-74
2022/03/13 08:49:21;;;;;;;18.67;13.38;;;8.60;79.00;;;;;;5024741;28;20021;-73
2022/03/13 08:51:47;;;;;;;18.02;13.52;;;8.60;78.50;;;;;;5024997;28;20032;-75
2022/03/13 08:54:16;;;;;;;18.90;13.80;;;8.70;78.10;;;;;;5046617;28;20049;-74
2022/03/13 08:56:42;;;;;;;18.25;13.95;;;8.70;78.00;;;;;;5025095;28;20025;-73
2022/03/13 08:59:08;;;;;;;16.83;13.73;;;8.80;78.20;;;;;;5024566;28;20022;-74
2022/03/13 09:01:34;;;;;;;16.30;13.27;;;8.90;77.70;;;;;;5033157;28;20025;-73
2022/03/13 09:03:59;;;;;;;16.65;13.57;;;9.10;77.10;;;;;;5032556;28;20022;-73
2022/03/13 09:06:25;;;;;;;16.20;13.20;;;9.20;77.10;;;;;;5047639;28;20045;-76
2022/03/13 09:08:51;;;;;;;17.67;13.52;;;9.30;76.80;;;;;;5028272;28;20061;-77
2022/03/13 09:11:17;;;;;;;20.13;14.18;;;9.30;76.90;;;;;;5029485;28;20031;-74
2022/03/13 09:13:43;;;;;;;20.90;14.82;;;9.40;77.00;;;;;;5049389;28;20506;-75
2022/03/13 09:16:08;;;;;;;20.35;15.18;;;9.40;77.40;;;;;;5020001;28;20462;-74
2022/03/13 09:18:34;;;;;;;18.00;14.18;;;9.50;77.30;;;;;;5029874;28;20022;-74
2022/03/13 09:21:00;;;;;;;20.27;15.73;;;9.70;76.40;;;;;;5025276;28;20036;-75
2022/03/13 09:23:26;;;;;;;17.88;13.93;;;9.70;76.70;;;;;;5046842;28;20029;-75
2022/03/13 09:25:53;;;;;;;19.60;15.77;;;10.00;76.00;;;;;;5032085;28;20021;-75
2022/03/13 09:28:19;;;;;;;20.77;15.38;;;10.10;75.90;;;;;;5020505;28;20022;-74
2022/03/13 09:30:44;;;;;;;20.05;14.45;;;10.20;75.80;;;;;;5031925;28;20087;-74
2022/03/13 09:33:11;;;;;;;18.73;14.45;;;10.20;76.10;;;;;;5021809;28;20034;-76
2022/03/13 09:35:36;;;;;;;19.33;14.45;;;10.40;75.40;;;;;;5027769;28;20079;-73
2022/03/13 09:38:02;;;;;;;22.05;15.73;;;10.40;75.80;;;;;;5022402;28;20485;-74
2022/03/13 09:40:27;;;;;;;20.23;15.13;;;10.60;75.20;;;;;;5024209;28;20018;-75
2022/03/13 09:42:54;;;;;;;23.17;15.68;;;10.80;74.60;;;;;;5028538;28;20043;-74
2022/03/13 09:45:20;;;;;;;17.88;15.05;;;10.90;74.50;;;;;;5022335;28;20110;-75
2022/03/13 09:47:46;;;;;;;25.95;19.05;;;10.90;74.30;;;;;;5025434;28;20489;-73
2022/03/13 09:50:13;;;;;;;22.60;15.70;;;11.00;74.90;;;;;;5044460;28;20038;-74
2022/03/13 09:52:40;;;;;;;23.70;15.85;;;11.20;74.60;;;;;;5025348;28;20028;-74
2022/03/13 09:55:08;;;;;;;20.35;14.75;;;11.40;74.30;;;;;;5029474;28;20024;-74
2022/03/13 09:57:36;;;;;;;21.08;16.30;;;11.50;73.50;;;;;;5020852;28;20022;-74
2022/03/13 10:00:03;;;;;;;17.30;15.07;;;11.50;73.60;;;;;;5035893;28;20017;-75
2022/03/13 10:02:34;;;;;;;22.25;16.52;;;11.70;73.70;;;;;;5045410;28;20018;-74
2022/03/13 10:05:05;;;;;;;20.98;16.38;;;11.80;73.20;;;;;;5044110;28;20132;-74
2022/03/13 10:07:31;;;;;;;21.23;16.25;;;11.80;73.50;;;;;;5034113;28;20030;-76
2022/03/13 10:10:07;;;;;;;19.65;16.25;;;11.80;73.00;;;;;;5031218;28;20040;-76
2022/03/13 10:12:39;;;;;;;21.48;16.55;;;11.90;73.40;;;;;;5022839;28;20033;-75
2022/03/13 10:15:06;;;;;;;18.73;15.73;;;11.90;73.20;;;;;;5023680;28;20469;-74
2022/03/13 10:17:34;;;;;;;23.98;17.38;;;12.20;73.10;;;;;;5030805;28;20023;-74
2022/03/13 10:20:16;;;;;;;22.23;17.30;;;12.40;73.00;;;;;;5024815;28;20026;-75
2022/03/13 10:22:45;;;;;;;22.40;15.48;;;12.60;71.70;;;;;;5032011;28;20021;-73
2022/03/13 10:25:14;;;;;;;24.33;16.83;;;12.70;71.00;;;;;;5039716;28;20030;-74
2022/03/13 10:27:43;;;;;;;19.17;15.90;;;12.70;71.00;;;;;;5031692;28;20555;-75
2022/03/13 10:30:09;;;;;;;22.02;15.65;;;12.80;70.90;;;;;;5027360;28;20037;-73
2022/03/13 10:32:38;;;;;;;22.30;15.80;;;12.90;71.10;;;;;;5025235;28;20101;-75
2022/03/13 10:35:04;;;;;;;20.63;15.82;;;13.00;70.20;;;;;;5025763;28;20032;-75
2022/03/13 10:37:38;;;;;;;20.58;16.90;;;12.90;71.00;;;;;;5023513;28;20020;-74
2022/03/13 10:40:12;;;;;;;21.88;16.00;;;12.80;71.20;;;;;;5027738;28;20018;-76
2022/03/13 10:42:43;;;;;;;21.80;17.83;;;13.10;70.60;;;;;;5024536;28;20558;-74
2022/03/13 10:45:10;;;;;;;36.30;28.48;;;13.50;69.80;;;;;;5030334;28;20531;-75
2022/03/13 10:47:37;;;;;;;21.48;17.50;;;13.60;70.10;;;;;;5024655;28;20095;-74
2022/03/13 10:50:03;;;;;;;21.75;17.15;;;13.80;69.40;;;;;;5031576;28;20028;-75
2022/03/13 10:52:41;;;;;;;24.17;18.00;;;13.90;68.70;;;;;;5024168;28;20032;-75
2022/03/13 10:55:20;;;;;;;20.50;15.95;;;13.80;68.40;;;;;;5027006;28;20121;-76
2022/03/13 10:57:52;;;;;;;26.92;17.42;;;14.00;68.40;;;;;;5029554;28;20010;-75
2022/03/13 11:00:19;;;;;;;24.75;18.48;;;14.00;67.30;;;;;;5028033;28;20048;-75
2022/03/13 11:02:45;;;;;;;22.98;18.15;;;14.00;67.50;;;;;;5029603;28;20056;-73
2022/03/13 11:05:11;;;;;;;25.40;18.85;;;14.10;67.00;;;;;;5048104;28;20033;-75
2022/03/13 11:07:36;;;;;;;26.00;19.17;;;14.10;66.60;;;;;;5024978;28;20032;-74
2022/03/13 11:10:03;;;;;;;24.58;17.92;;;14.20;66.20;;;;;;5050022;28;20053;-75
2022/03/13 11:12:30;;;;;;;23.30;18.52;;;14.40;65.50;;;;;;5025860;28;20021;-74
2022/03/13 11:14:58;;;;;;;24.70;19.55;;;14.50;65.30;;;;;;5027002;28;20028;-76
2022/03/13 11:17:28;;;;;;;26.15;19.75;;;14.50;65.10;;;;;;5034772;28;20093;-77
2022/03/13 11:19:58;;;;;;;24.75;19.63;;;14.40;65.40;;;;;;5026514;28;20490;-74
2022/03/13 11:22:25;;;;;;;24.90;19.03;;;14.60;65.30;;;;;;5031703;28;20513;-74
2022/03/13 11:25:05;;;;;;;25.10;19.45;;;14.60;65.30;;;;;;5028784;28;20756;-75
2022/03/13 11:27:33;;;;;;;27.77;19.92;;;14.70;65.70;;;;;;5027314;28;20021;-73
2022/03/13 11:29:59;;;;;;;29.23;19.55;;;14.50;65.70;;;;;;5031174;28;20025;-76
2022/03/13 11:32:35;;;;;;;26.30;19.08;;;14.70;65.30;;;;;;5047502;28;20033;-75
2022/03/13 11:35:13;;;;;;;24.08;19.38;;;14.90;65.30;;;;;;5035435;28;20143;-75
2022/03/13 11:37:40;;;;;;;21.55;17.73;;;15.00;64.70;;;;;;5030922;28;20493;-76
2022/03/13 11:40:08;;;;;;;28.35;18.60;;;15.20;64.10;;;;;;5049043;28;20032;-75
2022/03/13 11:42:50;;;;;;;25.58;19.70;;;14.90;64.60;;;;;;5040518;28;20033;-74
2022/03/13 11:45:30;;;;;;;23.20;18.85;;;15.10;63.90;;;;;;5026678;28;20026;-75
2022/03/13 11:48:21;;;;;;;26.05;19.33;;;15.20;63.70;;;;;;5033525;28;20025;-74
2022/03/13 11:50:47;;;;;;;26.83;17.90;;;15.30;63.40;;;;;;5037529;28;20112;-75
2022/03/13 11:53:20;;;;;;;26.63;19.42;;;15.10;64.40;;;;;;5035021;28;20172;-74
2022/03/13 11:56:00;;;;;;;25.20;18.67;;;15.20;64.40;;;;;;5034467;28;20018;-76
2022/03/13 11:58:54;;;;;;;23.25;17.80;;;15.30;64.00;;;;;;5048883;28;20047;-73
2022/03/13 12:01:31;;;;;;;22.42;17.80;;;15.80;62.30;;;;;;5037946;28;20479;-75
2022/03/13 12:04:07;;;;;;;31.45;20.52;;;15.90;62.00;;;;;;5032306;28;20100;-74
2022/03/13 12:06:41;;;;;;;28.15;17.92;;;15.60;62.40;;;;;;5023508;28;20025;-74
2022/03/13 12:09:08;;;;;;;24.85;18.15;;;15.60;62.80;;;;;;5034132;28;20025;-75
2022/03/13 12:11:42;;;;;;;21.70;18.40;;;15.50;62.50;;;;;;5030663;28;20026;-74
2022/03/13 12:14:13;;;;;;;24.42;17.77;;;15.80;61.40;;;;;;5025367;28;20023;-76
2022/03/13 12:16:41;;;;;;;24.58;17.90;;;16.10;60.70;;;;;;5043789;28;20483;-75
2022/03/13 12:19:07;;;;;;;24.00;18.55;;;16.00;62.70;;;;;;5043897;28;20060;-74
2022/03/13 12:21:34;;;;;;;24.50;18.65;;;16.00;61.00;;;;;;5017731;28;20052;-75
2022/03/13 12:24:15;;;;;;;24.02;19.25;;;16.30;59.90;;;;;;5030403;28;20048;-75
2022/03/13 12:26:42;;;;;;;26.02;18.50;;;16.40;59.80;;;;;;5028942;28;20014;-75
2022/03/13 12:29:11;;;;;;;25.52;19.88;;;16.40;59.50;;;;;;5045600;28;20036;-73
2022/03/13 12:31:42;;;;;;;24.05;18.50;;;16.30;59.40;;;;;;5021956;28;20029;-75
2022/03/13 12:34:08;;;;;;;29.48;19.45;;;16.40;59.10;;;;;;5031950;28;20083;-75